createdAt,value
2022-09-26T00:01:26.657Z,75992.94
2022-09-26T00:04:02.931Z,75992.94
2022-09-26T00:06:30.089Z,75990.91
2022-09-26T00:08:58.113Z,75992.94
2022-09-26T00:11:31.380Z,75996.97
2022-09-26T00:14:01.808Z,76005.09
2022-09-26T00:16:29.081Z,76003.06
2022-09-26T00:18:58.960Z,76001.03
2022-09-26T00:21:27.308Z,76005.09
2022-09-26T00:23:54.768Z,76009.13
2022-09-26T00:26:23.350Z,76001.03
2022-09-26T00:28:51.100Z,75996.97
2022-09-26T00:31:22.221Z,76001.03
2022-09-26T00:33:49.295Z,76001.03
2022-09-26T00:36:16.664Z,76009.13
2022-09-26T00:38:43.976Z,76017.25
2022-09-26T00:41:11.460Z,76021.31
2022-09-26T00:44:08.548Z,76029.41
2022-09-26T00:46:47.297Z,76033.47
2022-09-26T00:49:29.260Z,76039.53
2022-09-26T00:52:02.263Z,76037.50
2022-09-26T00:54:31.256Z,76041.56
2022-09-26T00:57:07.275Z,76045.63
2022-09-26T00:59:39.085Z,76043.59
2022-09-26T01:02:06.951Z,76053.72
2022-09-26T01:04:37.360Z,76051.69
2022-09-26T01:07:08.548Z,76057.78
2022-09-26T01:09:37.285Z,76065.88
2022-09-26T01:12:05.895Z,76069.94
2022-09-26T01:14:34.507Z,76078.06
2022-09-26T01:17:02.633Z,76078.06
2022-09-26T01:19:59.782Z,76080.06
2022-09-26T01:22:32.661Z,76088.19
2022-09-26T01:25:50.343Z,76086.16
2022-09-26T01:28:35.880Z,76090.22
2022-09-26T01:31:21.952Z,76094.25
2022-09-26T01:34:05.296Z,76094.25
2022-09-26T01:37:29.324Z,76100.34
2022-09-26T01:40:22.158Z,76110.47
2022-09-26T01:43:01.980Z,76110.47
2022-09-26T01:45:52.172Z,76106.41
2022-09-26T01:48:32.675Z,76112.50
2022-09-26T01:51:05.156Z,76116.56
2022-09-26T01:53:44.565Z,76118.59
2022-09-26T01:56:16.493Z,76130.75
2022-09-26T01:58:52.594Z,76138.84
2022-09-26T02:01:22.260Z,76146.97
2022-09-26T02:03:55.402Z,76142.91
2022-09-26T02:06:32.329Z,76140.88
2022-09-26T02:09:05.236Z,76142.91
2022-09-26T02:11:32.726Z,76151.00
2022-09-26T02:14:29.266Z,76155.06
2022-09-26T02:17:02.797Z,76146.97
2022-09-26T02:19:36.877Z,76159.13
2022-09-26T02:22:04.123Z,76159.13
2022-09-26T02:24:31.276Z,76163.19
2022-09-26T02:26:58.422Z,76163.19
2022-09-26T02:29:26.377Z,76167.22
2022-09-26T02:32:03.148Z,76171.28
2022-09-26T02:34:30.608Z,76169.25
2022-09-26T02:36:59.425Z,76175.34
2022-09-26T02:39:29.862Z,76175.34
2022-09-26T02:42:15.910Z,76179.38
2022-09-26T02:44:51.582Z,76183.44
2022-09-26T02:47:21.719Z,76201.69
2022-09-26T02:50:08.650Z,76199.66
2022-09-26T02:52:58.701Z,76209.78
2022-09-26T02:56:14.398Z,76207.78
2022-09-26T02:58:59.991Z,76209.78
2022-09-26T03:01:44.128Z,76215.88
2022-09-26T03:04:23.614Z,76211.81
2022-09-26T03:06:57.713Z,76219.94
2022-09-26T03:09:26.158Z,76219.94
2022-09-26T03:11:54.815Z,76221.94
2022-09-26T03:14:21.762Z,76228.03
2022-09-26T03:16:51.319Z,76228.03
2022-09-26T03:19:29.761Z,76228.03
2022-09-26T03:21:57.433Z,76230.06
2022-09-26T03:24:25.692Z,76240.19
2022-09-26T03:26:55.377Z,76236.16
2022-09-26T03:29:23.120Z,76244.25
2022-09-26T03:31:50.459Z,76240.19
2022-09-26T03:34:19.225Z,76240.19
2022-09-26T03:36:48.037Z,76256.41
2022-09-26T03:39:15.172Z,76252.34
2022-09-26T03:41:50.913Z,76256.41
2022-09-26T03:44:26.353Z,76256.41
2022-09-26T03:47:31.940Z,76270.59
2022-09-26T03:49:58.706Z,76276.69
2022-09-26T03:52:26.854Z,76284.78
2022-09-26T03:54:54.378Z,76288.84
2022-09-26T03:57:21.618Z,76296.94
2022-09-26T03:59:55.241Z,76294.91
2022-09-26T04:02:22.952Z,76305.06
2022-09-26T04:05:01.105Z,76292.91
2022-09-26T04:07:28.268Z,76296.94
2022-09-26T04:09:55.156Z,76305.06
2022-09-26T04:12:22.130Z,76305.06
2022-09-26T04:14:49.089Z,76309.13
2022-09-26T04:17:16.841Z,76305.06
2022-09-26T04:19:45.978Z,76309.13
2022-09-26T04:22:13.585Z,76311.13
2022-09-26T04:24:41.684Z,76317.22
2022-09-26T04:27:08.679Z,76315.19
2022-09-26T04:29:36.542Z,76313.16
2022-09-26T04:32:33.041Z,76315.19
2022-09-26T04:35:18.505Z,76325.31
2022-09-26T04:37:46.211Z,76321.28
2022-09-26T04:40:13.942Z,76327.34
2022-09-26T04:42:51.231Z,76329.38
2022-09-26T04:45:18.445Z,76333.44
2022-09-26T04:47:45.510Z,76333.44
2022-09-26T04:50:26.269Z,76331.41
2022-09-26T04:53:06.847Z,76327.34
2022-09-26T04:55:37.932Z,76329.38
2022-09-26T04:58:04.746Z,76345.59
2022-09-26T05:00:32.347Z,76337.50
2022-09-26T05:03:03.289Z,76333.44
2022-09-26T05:05:31.322Z,76333.44
2022-09-26T05:07:58.083Z,76329.38
2022-09-26T05:10:25.275Z,76327.34
2022-09-26T05:13:00.878Z,76313.16
2022-09-26T05:15:28.206Z,76313.16
2022-09-26T05:17:59.564Z,76321.28
2022-09-26T05:20:31.894Z,76329.38
2022-09-26T05:23:04.412Z,76331.41
2022-09-26T05:25:57.447Z,76333.44
2022-09-26T05:28:25.528Z,76333.44
2022-09-26T05:30:54.515Z,76325.31
2022-09-26T05:33:22.427Z,76327.34
2022-09-26T05:35:53.386Z,76329.38
2022-09-26T05:38:20.437Z,76317.22
2022-09-26T05:40:56.613Z,76298.97
2022-09-26T05:43:27.841Z,76301.00
2022-09-26T05:45:58.659Z,76286.81
2022-09-26T05:48:29.853Z,76272.63
2022-09-26T05:50:56.922Z,76272.63
2022-09-26T05:53:25.815Z,76266.53
2022-09-26T05:55:53.857Z,76252.34
2022-09-26T05:58:34.345Z,76242.22
2022-09-26T06:01:30.398Z,76236.16
2022-09-26T06:04:05.271Z,76236.16
2022-09-26T06:06:42.134Z,76221.94
2022-09-26T06:09:12.068Z,76219.94
2022-09-26T06:12:10.909Z,76236.16
2022-09-26T06:14:37.897Z,76236.16
2022-09-26T06:17:04.870Z,76240.19
2022-09-26T06:19:32.363Z,76228.03
2022-09-26T06:21:59.429Z,76215.88
2022-09-26T06:24:26.265Z,76211.81
2022-09-26T06:26:57.782Z,76187.50
2022-09-26T06:29:25.169Z,76175.34
2022-09-26T06:31:52.392Z,76159.13
2022-09-26T06:34:25.992Z,76144.94
2022-09-26T06:37:19.139Z,76138.84
2022-09-26T06:39:46.078Z,76124.66
2022-09-26T06:42:13.220Z,76110.47
2022-09-26T06:45:10.782Z,76094.25
2022-09-26T06:48:05.480Z,76082.09
2022-09-26T06:51:00.616Z,76065.88
2022-09-26T06:53:31.413Z,76061.84
2022-09-26T06:55:59.727Z,76065.88
2022-09-26T06:58:27.864Z,76059.81
2022-09-26T07:01:00.797Z,76047.66
2022-09-26T07:03:48.346Z,76045.63
2022-09-26T07:06:44.538Z,76033.47
2022-09-26T07:09:12.938Z,76025.34
2022-09-26T07:12:13.623Z,76011.16
2022-09-26T07:14:39.301Z,76029.41
2022-09-26T07:17:17.216Z,76013.19
2022-09-26T07:20:16.894Z,76009.13
2022-09-26T07:23:11.249Z,75992.94
2022-09-26T07:25:40.468Z,75988.88
2022-09-26T07:28:09.312Z,75982.78
2022-09-26T07:30:49.790Z,75968.59
2022-09-26T07:33:28.406Z,75962.53
2022-09-26T07:36:01.875Z,75944.28
2022-09-26T07:38:31.568Z,75940.22
2022-09-26T07:41:00.833Z,75944.28
2022-09-26T07:43:54.772Z,75924.00
2022-09-26T07:46:34.637Z,75915.91
2022-09-26T07:49:20.327Z,75903.75
2022-09-26T07:52:07.824Z,75883.47
2022-09-26T07:54:57.575Z,75863.22
2022-09-26T07:57:43.378Z,75844.97
2022-09-26T08:00:21.321Z,75822.69
2022-09-26T08:03:01.706Z,75798.38
2022-09-26T08:05:31.775Z,75782.16
2022-09-26T08:07:58.781Z,75776.06
2022-09-26T08:10:45.042Z,75753.78
2022-09-26T08:13:33.171Z,75737.56
2022-09-26T08:16:29.653Z,75717.28
2022-09-26T08:18:59.695Z,75705.13
2022-09-26T08:21:26.558Z,75697.03
2022-09-26T08:23:56.985Z,75692.97
2022-09-26T08:26:44.317Z,75682.84
2022-09-26T08:29:16.852Z,75664.59
2022-09-26T08:31:46.286Z,75654.47
2022-09-26T08:34:13.514Z,75644.34
2022-09-26T08:36:41.820Z,75636.22
2022-09-26T08:39:24.508Z,75624.06
2022-09-26T08:42:35.203Z,75611.91
2022-09-26T08:45:48.110Z,75603.81
2022-09-26T08:48:52.055Z,75595.69
2022-09-26T08:51:34.883Z,75595.69
2022-09-26T08:54:12.368Z,75587.59
2022-09-26T08:56:43.754Z,75587.59
2022-09-26T08:59:35.935Z,75571.38
2022-09-26T09:02:10.837Z,75571.38
2022-09-26T09:04:57.642Z,75563.28
2022-09-26T09:07:26.282Z,75563.28
2022-09-26T09:10:00.187Z,75555.19
2022-09-26T09:13:01.643Z,75543.00
2022-09-26T09:15:56.229Z,75526.81
2022-09-26T09:19:08.755Z,75510.59
2022-09-26T09:22:23.723Z,75494.38
2022-09-26T09:25:31.033Z,75486.28
2022-09-26T09:28:13.735Z,75470.06
2022-09-26T09:30:50.393Z,75459.94
2022-09-26T09:33:58.820Z,75443.72
2022-09-26T09:37:10.791Z,75429.53
2022-09-26T09:39:57.060Z,75417.38
2022-09-26T09:42:43.455Z,75401.16
2022-09-26T09:45:45.934Z,75393.06
2022-09-26T09:48:13.755Z,75389.00
2022-09-26T09:51:04.041Z,75376.84
2022-09-26T09:54:05.118Z,75358.63
2022-09-26T09:56:36.654Z,75344.44
2022-09-26T09:59:15.395Z,75320.13
2022-09-26T10:02:19.474Z,75309.97
2022-09-26T10:04:50.258Z,75299.84
2022-09-26T10:07:17.430Z,75287.69
2022-09-26T10:10:02.233Z,75279.59
2022-09-26T10:12:50.286Z,75279.59
2022-09-26T10:15:38.972Z,75271.47
2022-09-26T10:18:25.992Z,75267.44
2022-09-26T10:21:09.033Z,75255.25
2022-09-26T10:23:39.965Z,75243.09
2022-09-26T10:26:13.966Z,75226.91
2022-09-26T10:28:44.973Z,75202.59
2022-09-26T10:31:23.447Z,75178.28
2022-09-26T10:34:26.237Z,75149.91
2022-09-26T10:36:54.215Z,75129.63
2022-09-26T10:39:48.633Z,75109.38
2022-09-26T10:42:20.971Z,75072.91
2022-09-26T10:44:51.199Z,75050.63
2022-09-26T10:47:26.323Z,75040.47
2022-09-26T10:50:17.141Z,75024.28
2022-09-26T10:53:08.948Z,75024.28
2022-09-26T10:55:47.547Z,75022.25
2022-09-26T10:58:19.231Z,75032.38
2022-09-26T11:00:50.854Z,75044.53
2022-09-26T11:03:24.901Z,75052.66
2022-09-26T11:06:34.199Z,75052.66
2022-09-26T11:09:08.634Z,75040.47
2022-09-26T11:11:56.259Z,75032.38
2022-09-26T11:14:32.662Z,75028.31
2022-09-26T11:17:09.067Z,75026.31
2022-09-26T11:20:02.328Z,75032.38
2022-09-26T11:22:40.442Z,75012.13
2022-09-26T11:25:14.277Z,74997.94
2022-09-26T11:27:46.774Z,74991.84
2022-09-26T11:30:22.289Z,74991.84
2022-09-26T11:33:00.457Z,74971.59
2022-09-26T11:35:33.421Z,74967.53
2022-09-26T11:38:39.549Z,74967.53
2022-09-26T11:41:13.623Z,74963.50
2022-09-26T11:44:05.135Z,74963.50
2022-09-26T11:47:07.273Z,74959.44
2022-09-26T11:50:04.379Z,74957.41
2022-09-26T11:53:04.138Z,74959.44
2022-09-26T11:56:02.355Z,74947.28
2022-09-26T11:58:53.521Z,74931.06
2022-09-26T12:01:23.505Z,74916.88
2022-09-26T12:04:02.118Z,74902.72
2022-09-26T12:06:55.232Z,74886.50
2022-09-26T12:09:47.374Z,74874.34
2022-09-26T12:12:29.176Z,74866.25
2022-09-26T12:15:02.879Z,74866.25
2022-09-26T12:17:49.910Z,74866.25
2022-09-26T12:20:47.196Z,74866.25
2022-09-26T12:23:22.140Z,74870.28
2022-09-26T12:26:17.406Z,74872.31
2022-09-26T12:28:54.176Z,74876.38
2022-09-26T12:31:45.454Z,74878.41
2022-09-26T12:34:21.534Z,74874.34
2022-09-26T12:37:26.077Z,74872.31
2022-09-26T12:40:15.407Z,74866.25
2022-09-26T12:43:01.650Z,74858.13
2022-09-26T12:45:55.213Z,74835.84
2022-09-26T12:48:39.601Z,74827.75
2022-09-26T12:51:12.705Z,74821.66
2022-09-26T12:54:02.234Z,74815.59
2022-09-26T12:56:39.673Z,74811.53
2022-09-26T12:59:41.141Z,74807.47
2022-09-26T13:02:08.167Z,74805.47
2022-09-26T13:04:59.763Z,74797.34
2022-09-26T13:07:51.823Z,74762.91
2022-09-26T13:10:28.781Z,74744.69
2022-09-26T13:12:58.847Z,74736.56
2022-09-26T13:15:39.998Z,74720.38
2022-09-26T13:18:35.466Z,74712.25
2022-09-26T13:21:07.872Z,74724.41
2022-09-26T13:23:41.112Z,74724.41
2022-09-26T13:26:30.995Z,74732.53
2022-09-26T13:29:18.175Z,74732.53
2022-09-26T13:32:06.485Z,74720.38
2022-09-26T13:34:40.254Z,74710.22
2022-09-26T13:37:19.587Z,74704.16
2022-09-26T13:39:52.250Z,74700.09
2022-09-26T13:42:27.515Z,74696.06
2022-09-26T13:45:41.119Z,74700.09
2022-09-26T13:48:29.287Z,74716.31
2022-09-26T13:51:25.630Z,74720.38
2022-09-26T13:54:03.403Z,74736.56
2022-09-26T13:56:34.961Z,74748.72
2022-09-26T13:59:11.147Z,74760.88
2022-09-26T14:01:42.225Z,74773.03
2022-09-26T14:04:37.561Z,74781.16
2022-09-26T14:07:35.380Z,74785.19
2022-09-26T14:10:02.236Z,74785.19
2022-09-26T14:12:54.235Z,74793.31
2022-09-26T14:15:24.254Z,74797.34
2022-09-26T14:17:51.619Z,74797.34
2022-09-26T14:20:27.431Z,74793.31
2022-09-26T14:22:56.929Z,74781.16
2022-09-26T14:25:45.648Z,74777.09
2022-09-26T14:28:33.519Z,74789.25
2022-09-26T14:31:24.362Z,74801.41
2022-09-26T14:34:11.801Z,74813.56
2022-09-26T14:36:39.225Z,74829.78
2022-09-26T14:39:06.375Z,74841.94
2022-09-26T14:41:36.043Z,74845.97
2022-09-26T14:44:16.294Z,74858.13
2022-09-26T14:46:43.927Z,74858.13
2022-09-26T14:49:28.142Z,74870.28
2022-09-26T14:51:59.847Z,74882.44
2022-09-26T14:54:37.256Z,74894.59
2022-09-26T14:57:08.238Z,74902.72
2022-09-26T14:59:35.204Z,74906.75
2022-09-26T15:02:17.448Z,74912.84
2022-09-26T15:04:53.445Z,74910.81
2022-09-26T15:07:27.280Z,74918.91
2022-09-26T15:10:05.375Z,74931.06
2022-09-26T15:12:44.156Z,74933.09
2022-09-26T15:15:39.275Z,74939.19
2022-09-26T15:18:17.261Z,74943.22
2022-09-26T15:21:00.448Z,74947.28
2022-09-26T15:23:44.189Z,74959.44
2022-09-26T15:26:11.715Z,74995.91
2022-09-26T15:28:38.746Z,74985.78
2022-09-26T15:31:38.250Z,74991.84
2022-09-26T15:34:16.599Z,74995.91
2022-09-26T15:36:48.433Z,75004.00
2022-09-26T15:39:30.741Z,75004.00
2022-09-26T15:42:29.514Z,74999.97
2022-09-26T15:45:01.514Z,75016.16
2022-09-26T15:47:34.279Z,75018.19
2022-09-26T15:50:15.098Z,75022.25
2022-09-26T15:52:52.110Z,75024.28
2022-09-26T15:55:23.891Z,75024.28
2022-09-26T15:57:52.288Z,75020.22
2022-09-26T16:00:19.881Z,75024.28
2022-09-26T16:02:48.776Z,75028.31
2022-09-26T16:05:16.641Z,75044.53
2022-09-26T16:07:49.052Z,75058.72
2022-09-26T16:10:42.655Z,75064.81
2022-09-26T16:13:25.587Z,75074.94
2022-09-26T16:16:18.908Z,75076.97
2022-09-26T16:18:55.423Z,75085.06
2022-09-26T16:21:26.395Z,75085.06
2022-09-26T16:23:57.934Z,75093.16
2022-09-26T16:26:40.392Z,75097.22
2022-09-26T16:29:08.450Z,75097.22
2022-09-26T16:31:44.944Z,75101.28
2022-09-26T16:34:26.172Z,75111.41
2022-09-26T16:36:53.994Z,75117.47
2022-09-26T16:39:25.108Z,75125.59
2022-09-26T16:42:02.877Z,75133.69
2022-09-26T16:44:36.460Z,75129.63
2022-09-26T16:47:25.106Z,75125.59
2022-09-26T16:49:52.140Z,75127.63
2022-09-26T16:52:22.230Z,75121.53
2022-09-26T16:54:51.083Z,75121.53
2022-09-26T16:57:30.345Z,75125.59
2022-09-26T17:00:21.045Z,75129.63
2022-09-26T17:02:48.185Z,75127.63
2022-09-26T17:05:20.776Z,75117.47
2022-09-26T17:07:49.218Z,75115.47
2022-09-26T17:10:18.363Z,75115.47
2022-09-26T17:12:51.540Z,75109.38
2022-09-26T17:15:30.137Z,75113.44
2022-09-26T17:17:58.351Z,75113.44
2022-09-26T17:20:26.874Z,75121.53
2022-09-26T17:22:54.893Z,75121.53
2022-09-26T17:25:25.175Z,75119.50
2022-09-26T17:27:58.185Z,75125.59
2022-09-26T17:30:25.505Z,75125.59
2022-09-26T17:32:54.419Z,75129.63
2022-09-26T17:35:31.966Z,75125.59
2022-09-26T17:38:00.118Z,75137.75
2022-09-26T17:40:30.621Z,75137.75
2022-09-26T17:43:00.816Z,75141.78
2022-09-26T17:45:30.057Z,75147.88
2022-09-26T17:48:10.505Z,75162.06
2022-09-26T17:50:39.196Z,75162.06
2022-09-26T17:53:09.431Z,75174.22
2022-09-26T17:55:36.475Z,75170.16
2022-09-26T17:58:09.416Z,75170.16
2022-09-26T18:00:43.606Z,75170.16
2022-09-26T18:03:19.820Z,75168.13
2022-09-26T18:05:47.274Z,75166.09
2022-09-26T18:08:22.918Z,75170.16
2022-09-26T18:10:56.887Z,75170.16
2022-09-26T18:13:27.953Z,75170.16
2022-09-26T18:15:58.922Z,75182.31
2022-09-26T18:18:28.928Z,75186.38
2022-09-26T18:20:57.587Z,75186.38
2022-09-26T18:23:34.909Z,75190.44
2022-09-26T18:26:03.088Z,75182.31
2022-09-26T18:28:30.168Z,75194.47
2022-09-26T18:31:00.427Z,75198.53
2022-09-26T18:33:29.337Z,75202.59
2022-09-26T18:35:57.657Z,75210.69
2022-09-26T18:38:24.616Z,75220.81
2022-09-26T18:40:55.406Z,75230.94
2022-09-26T18:43:25.116Z,75239.06
2022-09-26T18:45:52.645Z,75251.22
2022-09-26T18:48:25.409Z,75249.19
2022-09-26T18:50:53.547Z,75255.25
2022-09-26T18:53:23.424Z,75263.38
2022-09-26T18:56:08.980Z,75271.47
2022-09-26T18:58:36.193Z,75277.56
2022-09-26T19:01:07.025Z,75275.53
2022-09-26T19:03:41.360Z,75289.72
2022-09-26T19:06:16.250Z,75293.78
2022-09-26T19:08:45.896Z,75303.91
2022-09-26T19:11:19.628Z,75316.06
2022-09-26T19:13:49.082Z,75330.25
2022-09-26T19:16:17.899Z,75336.31
2022-09-26T19:18:45.625Z,75344.44
2022-09-26T19:21:20.871Z,75344.44
2022-09-26T19:23:49.424Z,75358.63
2022-09-26T19:26:35.093Z,75364.69
2022-09-26T19:29:07.809Z,75372.78
2022-09-26T19:31:38.344Z,75382.94
2022-09-26T19:34:06.150Z,75384.97
2022-09-26T19:36:33.143Z,75382.94
2022-09-26T19:39:00.051Z,75380.91
2022-09-26T19:41:27.448Z,75389.00
2022-09-26T19:43:54.476Z,75384.97
2022-09-26T19:46:29.849Z,75384.97
2022-09-26T19:48:57.526Z,75384.97
2022-09-26T19:51:25.013Z,75393.06
2022-09-26T19:53:52.277Z,75405.22
2022-09-26T19:56:19.221Z,75401.16
2022-09-26T19:58:46.437Z,75397.13
2022-09-26T20:01:21.248Z,75397.13
2022-09-26T20:03:49.931Z,75401.16
2022-09-26T20:06:23.357Z,75401.16
2022-09-26T20:08:55.385Z,75405.22
2022-09-26T20:11:24.993Z,75403.19
2022-09-26T20:14:10.647Z,75405.22
2022-09-26T20:16:42.270Z,75405.22
2022-09-26T20:19:16.118Z,75415.34
2022-09-26T20:21:43.407Z,75413.31
2022-09-26T20:24:16.460Z,75413.31
2022-09-26T20:26:43.856Z,75417.38
2022-09-26T20:29:14.072Z,75405.22
2022-09-26T20:31:43.864Z,75409.28
2022-09-26T20:34:11.664Z,75405.22
2022-09-26T20:36:42.206Z,75417.38
2022-09-26T20:39:16.494Z,75413.31
2022-09-26T20:41:44.302Z,75407.25
2022-09-26T20:44:13.440Z,75405.22
2022-09-26T20:46:48.465Z,75409.28
2022-09-26T20:49:21.753Z,75409.28
2022-09-26T20:51:50.055Z,75411.28
2022-09-26T20:54:28.956Z,75411.28
2022-09-26T20:56:56.790Z,75433.59
2022-09-26T20:59:24.798Z,75429.53
2022-09-26T21:01:54.131Z,75439.66
2022-09-26T21:04:30.611Z,75441.69
2022-09-26T21:06:58.447Z,75441.69
2022-09-26T21:09:26.526Z,75449.81
2022-09-26T21:11:53.452Z,75443.72
2022-09-26T21:14:20.448Z,75449.81
2022-09-26T21:16:53.796Z,75449.81
2022-09-26T21:19:23.874Z,75457.91
2022-09-26T21:22:01.239Z,75449.81
2022-09-26T21:24:42.151Z,75449.81
2022-09-26T21:27:15.249Z,75449.81
2022-09-26T21:29:43.592Z,75455.88
2022-09-26T21:32:20.906Z,75447.78
2022-09-26T21:35:03.394Z,75445.75
2022-09-26T21:37:32.066Z,75441.69
2022-09-26T21:39:59.257Z,75441.69
2022-09-26T21:42:26.464Z,75433.59
2022-09-26T21:45:01.063Z,75425.47
2022-09-26T21:47:29.385Z,75425.47
2022-09-26T21:49:56.280Z,75429.53
2022-09-26T21:52:31.222Z,75435.63
2022-09-26T21:55:00.056Z,75421.44
2022-09-26T21:57:30.653Z,75429.53
2022-09-26T21:59:58.436Z,75425.47
2022-09-26T22:02:26.056Z,75425.47
2022-09-26T22:04:53.255Z,75421.44
2022-09-26T22:07:21.207Z,75417.38
2022-09-26T22:09:48.370Z,75423.47
2022-09-26T22:12:15.310Z,75421.44
2022-09-26T22:14:42.582Z,75425.47
2022-09-26T22:17:09.821Z,75425.47
2022-09-26T22:19:36.902Z,75425.47
2022-09-26T22:22:03.876Z,75417.38
2022-09-26T22:24:32.048Z,75425.47
2022-09-26T22:26:59.357Z,75415.34
2022-09-26T22:29:27.492Z,75415.34
2022-09-26T22:31:55.630Z,75413.31
2022-09-26T22:34:22.803Z,75407.25
2022-09-26T22:36:50.610Z,75401.16
2022-09-26T22:39:17.786Z,75397.13
2022-09-26T22:41:44.964Z,75393.06
2022-09-26T22:44:12.101Z,75397.13
2022-09-26T22:46:39.687Z,75393.06
2022-09-26T22:49:07.133Z,75397.13
2022-09-26T22:51:34.822Z,75397.13
2022-09-26T22:54:02.111Z,75389.00
2022-09-26T22:56:29.099Z,75393.06
2022-09-26T22:58:56.331Z,75384.97
2022-09-26T23:01:27.443Z,75386.97
2022-09-26T23:03:55.244Z,75384.97
2022-09-26T23:06:23.603Z,75374.81
2022-09-26T23:08:51.035Z,75372.78
2022-09-26T23:11:19.466Z,75368.75
2022-09-26T23:13:47.040Z,75370.78
2022-09-26T23:16:17.924Z,75368.75
2022-09-26T23:18:45.300Z,75368.75
2022-09-26T23:21:20.266Z,75364.69
2022-09-26T23:23:50.247Z,75368.75
2022-09-26T23:26:35.167Z,75368.75
2022-09-26T23:29:02.236Z,75370.78
2022-09-26T23:31:29.718Z,75360.63
2022-09-26T23:33:57.499Z,75360.63
2022-09-26T23:36:25.390Z,75356.59
2022-09-26T23:38:53.648Z,75356.59
2022-09-26T23:41:20.616Z,75354.56
2022-09-26T23:43:48.232Z,75352.53
2022-09-26T23:46:15.478Z,75354.56
2022-09-26T23:48:43.602Z,75354.56
2022-09-26T23:51:11.431Z,75352.53
2022-09-26T23:53:38.422Z,75352.53
2022-09-26T23:56:09.376Z,75356.59
2022-09-26T23:58:39.295Z,75356.59
